createdAt,value
2018-04-24T00:02:25.871Z,14.20
2018-04-24T00:04:53.405Z,14.20
2018-04-24T00:07:20.954Z,14.10
2018-04-24T00:09:49.154Z,14.10
2018-04-24T00:12:16.678Z,14.10
2018-04-24T00:14:44.506Z,14.00
2018-04-24T00:17:12.091Z,14.10
2018-04-24T00:19:39.624Z,14.20
2018-04-24T00:22:07.142Z,14.20
2018-04-24T00:24:35.491Z,14.20
2018-04-24T00:27:03.021Z,14.20
2018-04-24T00:29:30.616Z,14.20
2018-04-24T00:31:59.484Z,14.30
2018-04-24T00:34:27.079Z,14.20
2018-04-24T00:36:54.539Z,14.30
2018-04-24T00:39:22.851Z,14.20
2018-04-24T00:41:51.191Z,14.20
2018-04-24T00:44:19.475Z,14.20
2018-04-24T00:46:47.013Z,14.20
2018-04-24T00:49:26.514Z,14.30
2018-04-24T00:56:10.247Z,14.40
2018-04-24T00:58:37.807Z,14.30
2018-04-24T01:01:05.365Z,14.30
2018-04-24T01:03:32.947Z,14.40
2018-04-24T01:06:00.478Z,14.30
2018-04-24T01:08:29.000Z,14.40
2018-04-24T01:10:56.558Z,14.40
2018-04-24T01:13:24.146Z,14.40
2018-04-24T01:15:51.658Z,14.50
2018-04-24T01:18:19.754Z,14.50
2018-04-24T01:20:47.265Z,14.60
2018-04-24T01:23:16.445Z,14.50
2018-04-24T01:25:44.018Z,14.40
2018-04-24T01:28:12.927Z,14.50
2018-04-24T01:30:40.470Z,14.50
2018-04-24T01:33:08.010Z,14.50
2018-04-24T01:35:35.527Z,14.50
2018-04-24T01:38:03.161Z,14.60
2018-04-24T01:40:31.178Z,14.50
2018-04-24T01:42:58.726Z,14.50
2018-04-24T01:45:26.241Z,14.40
2018-04-24T01:47:54.559Z,14.40
2018-04-24T01:50:22.079Z,14.40
2018-04-24T01:52:50.371Z,14.40
2018-04-24T01:55:18.723Z,14.50
2018-04-24T01:57:46.230Z,14.50
2018-04-24T02:00:15.491Z,14.40
2018-04-24T02:02:43.636Z,14.40
2018-04-24T02:05:11.171Z,14.40
2018-04-24T02:07:38.678Z,14.40
2018-04-24T02:10:06.243Z,14.40
2018-04-24T02:12:33.766Z,14.40
2018-04-24T02:15:01.276Z,14.40
2018-04-24T02:17:28.823Z,14.40
2018-04-24T02:19:56.336Z,14.30
2018-04-24T02:22:23.862Z,14.30
2018-04-24T02:24:51.620Z,14.20
2018-04-24T02:27:19.134Z,14.10
2018-04-24T02:29:47.915Z,14.10
2018-04-24T02:32:17.252Z,14.10
2018-04-24T02:34:44.763Z,14.10
2018-04-24T02:37:12.290Z,14.10
2018-04-24T02:39:39.834Z,14.20
2018-04-24T02:42:07.396Z,14.20
2018-04-24T02:44:34.948Z,14.20
2018-04-24T02:47:03.230Z,14.20
2018-04-24T02:49:30.742Z,14.30
2018-04-24T02:51:59.040Z,14.30
2018-04-24T02:54:26.615Z,14.30
2018-04-24T02:56:54.144Z,14.20
2018-04-24T02:59:22.834Z,14.20
2018-04-24T03:01:51.229Z,14.30
2018-04-24T03:04:18.770Z,14.20
2018-04-24T03:06:46.326Z,14.30
2018-04-24T03:09:27.258Z,14.30
2018-04-24T03:14:54.221Z,14.20
2018-04-24T03:17:22.440Z,14.10
2018-04-24T03:19:49.968Z,14.10
2018-04-24T03:22:17.507Z,14.10
2018-04-24T03:24:45.019Z,14.20
2018-04-24T03:27:12.532Z,14.20
2018-04-24T03:29:40.118Z,14.20
2018-04-24T03:32:07.918Z,14.20
2018-04-24T03:34:35.451Z,14.20
2018-04-24T03:37:03.023Z,14.00
2018-04-24T03:39:30.598Z,14.00
2018-04-24T03:41:58.135Z,14.00
2018-04-24T03:44:26.458Z,14.00
2018-04-24T03:46:53.997Z,14.00
2018-04-24T03:49:21.517Z,14.10
2018-04-24T03:51:50.148Z,14.00
2018-04-24T03:54:17.694Z,14.00
2018-04-24T03:56:45.231Z,14.00
2018-04-24T03:59:14.486Z,14.00
2018-04-24T04:01:42.038Z,14.00
2018-04-24T04:04:09.566Z,14.00
2018-04-24T04:06:37.148Z,14.00
2018-04-24T04:09:04.670Z,14.10
2018-04-24T04:11:33.028Z,14.00
2018-04-24T04:14:00.893Z,14.00
2018-04-24T04:16:28.410Z,14.00
2018-04-24T04:19:07.762Z,14.10
2018-04-24T04:21:47.284Z,14.20
2018-04-24T04:27:18.866Z,14.20
2018-04-24T04:29:47.145Z,14.20
2018-04-24T04:32:17.374Z,14.20
2018-04-24T04:34:44.945Z,14.10
2018-04-24T04:37:12.555Z,14.30
2018-04-24T04:39:40.171Z,14.20
2018-04-24T04:42:07.697Z,14.30
2018-04-24T04:44:35.256Z,14.40
2018-04-24T04:47:02.984Z,14.30
2018-04-24T04:49:30.519Z,14.30
2018-04-24T04:51:58.850Z,14.30
2018-04-24T04:54:26.386Z,14.30
2018-04-24T04:56:53.919Z,14.30
2018-04-24T04:59:22.243Z,14.30
2018-04-24T05:01:49.764Z,14.20
2018-04-24T05:04:17.336Z,14.30
2018-04-24T05:06:44.878Z,14.30
2018-04-24T05:09:14.083Z,14.30
2018-04-24T05:11:41.598Z,14.30
2018-04-24T05:14:09.342Z,14.30
2018-04-24T05:16:36.862Z,14.30
2018-04-24T05:19:05.024Z,14.40
2018-04-24T05:21:33.392Z,14.60
2018-04-24T05:24:00.975Z,14.50
2018-04-24T05:26:28.593Z,14.60
2018-04-24T05:28:56.103Z,14.50
2018-04-24T05:31:23.646Z,14.60
2018-04-24T05:33:51.498Z,14.60
2018-04-24T05:36:19.403Z,14.60
2018-04-24T05:38:46.935Z,14.70
2018-04-24T05:41:26.743Z,15.20
2018-04-24T05:47:57.242Z,15.20
2018-04-24T05:50:24.776Z,15.40
2018-04-24T05:52:52.306Z,15.70
2018-04-24T05:55:20.413Z,15.90
2018-04-24T05:57:48.717Z,15.70
2018-04-24T06:00:16.547Z,15.70
2018-04-24T06:02:44.882Z,15.80
2018-04-24T06:05:12.410Z,15.80
2018-04-24T06:07:39.930Z,15.90
2018-04-24T06:10:07.599Z,16.00
2018-04-24T06:12:35.112Z,16.00
2018-04-24T06:15:02.674Z,16.10
2018-04-24T06:17:30.673Z,16.30
2018-04-24T06:19:58.195Z,16.80
2018-04-24T06:22:25.717Z,17.20
2018-04-24T06:24:53.386Z,17.60
2018-04-24T06:27:21.747Z,17.70
2018-04-24T06:29:49.268Z,17.60
2018-04-24T06:32:16.819Z,17.70
2018-04-24T06:34:44.682Z,17.80
2018-04-24T06:37:12.203Z,18.50
2018-04-24T06:39:40.823Z,20.30
2018-04-24T06:42:09.291Z,20.20
2018-04-24T06:44:36.823Z,21.00
2018-04-24T06:47:05.127Z,22.20
2018-04-24T06:49:32.684Z,22.20
2018-04-24T06:52:00.194Z,22.50
2018-04-24T06:54:27.735Z,22.70
2018-04-24T06:56:55.263Z,23.00
2018-04-24T06:59:22.780Z,22.80
2018-04-24T07:01:51.507Z,23.80
2018-04-24T07:04:19.034Z,23.80
2018-04-24T07:06:47.311Z,24.00
2018-04-24T07:09:16.434Z,24.00
2018-04-24T07:11:43.960Z,22.60
2018-04-24T07:14:12.260Z,23.40
2018-04-24T07:16:39.803Z,23.40
2018-04-24T07:19:08.103Z,25.40
2018-04-24T07:21:35.628Z,25.40
2018-04-24T07:24:04.250Z,26.30
2018-04-24T07:26:32.534Z,26.30
2018-04-24T07:29:00.056Z,26.30
2018-04-24T07:31:27.727Z,25.10
2018-04-24T07:33:55.238Z,24.00
2018-04-24T07:36:23.019Z,23.10
2018-04-24T07:38:50.587Z,22.40
2018-04-24T07:41:18.896Z,22.60
2018-04-24T07:43:46.414Z,22.60
2018-04-24T07:46:27.244Z,22.10
2018-04-24T07:51:30.214Z,21.50
2018-04-24T07:53:58.582Z,20.60
2018-04-24T07:56:26.104Z,21.00
2018-04-24T07:58:53.852Z,23.20
2018-04-24T08:01:21.375Z,24.90
2018-04-24T08:03:48.894Z,26.10
2018-04-24T08:06:17.623Z,28.10
2018-04-24T08:08:45.132Z,28.00
2018-04-24T08:11:15.074Z,27.90
2018-04-24T08:13:42.607Z,27.90
2018-04-24T08:16:10.136Z,28.30
2018-04-24T08:18:37.658Z,27.20
2018-04-24T08:21:05.218Z,26.30
2018-04-24T08:23:32.729Z,27.80
2018-04-24T08:26:00.249Z,28.90
2018-04-24T08:28:28.013Z,29.60
2018-04-24T08:30:55.525Z,30.40
2018-04-24T08:33:23.047Z,31.20
2018-04-24T08:35:51.104Z,30.70
2018-04-24T08:38:18.847Z,30.30
2018-04-24T08:40:46.354Z,29.00
2018-04-24T08:43:16.358Z,26.20
2018-04-24T08:45:43.914Z,26.20
2018-04-24T08:48:11.454Z,26.40
2018-04-24T08:50:39.755Z,27.50
2018-04-24T08:53:07.370Z,28.10
2018-04-24T08:55:34.838Z,28.20
2018-04-24T08:58:02.403Z,27.40
2018-04-24T09:00:30.011Z,26.80
2018-04-24T09:02:57.547Z,26.50
2018-04-24T09:05:25.098Z,28.00
2018-04-24T09:07:52.612Z,30.00
2018-04-24T09:10:21.235Z,28.50
2018-04-24T09:12:49.358Z,28.40
2018-04-24T09:15:17.738Z,27.90
2018-04-24T09:17:45.260Z,27.90
2018-04-24T09:20:13.754Z,29.30
2018-04-24T09:22:42.065Z,30.30
2018-04-24T09:25:10.347Z,29.60
2018-04-24T09:27:38.678Z,30.20
2018-04-24T09:30:06.194Z,30.20
2018-04-24T09:32:33.827Z,30.20
2018-04-24T09:37:43.850Z,30.30
2018-04-24T09:40:11.957Z,29.30
2018-04-24T09:42:39.527Z,28.50
2018-04-24T09:45:07.856Z,30.30
2018-04-24T09:47:35.406Z,30.30
2018-04-24T09:50:02.950Z,32.30
2018-04-24T09:52:30.488Z,32.00
2018-04-24T09:54:59.019Z,28.90
2018-04-24T09:57:26.565Z,28.80
2018-04-24T09:59:54.080Z,26.90
2018-04-24T10:02:22.407Z,27.10
2018-04-24T10:04:49.928Z,27.10
2018-04-24T10:07:17.455Z,27.20
2018-04-24T10:09:45.019Z,28.00
2018-04-24T10:12:12.543Z,27.50
2018-04-24T10:14:40.067Z,27.20
2018-04-24T10:17:08.290Z,26.00
2018-04-24T10:19:36.176Z,25.00
2018-04-24T10:22:03.711Z,25.00
2018-04-24T10:24:31.382Z,25.10
2018-04-24T10:26:58.916Z,25.10
2018-04-24T10:29:26.455Z,25.10
2018-04-24T10:31:54.043Z,25.20
2018-04-24T10:34:21.568Z,25.30
2018-04-24T10:36:49.962Z,25.10
2018-04-24T10:39:18.114Z,25.10
2018-04-24T10:41:46.152Z,24.90
2018-04-24T10:44:26.827Z,24.00
2018-04-24T10:49:28.026Z,23.50
2018-04-24T10:51:55.566Z,23.50
2018-04-24T10:54:23.099Z,23.90
2018-04-24T10:56:52.315Z,24.10
2018-04-24T10:59:19.885Z,24.20
2018-04-24T11:01:47.389Z,24.20
2018-04-24T11:04:16.302Z,23.70
2018-04-24T11:06:43.870Z,23.70
2018-04-24T11:09:11.383Z,23.50
2018-04-24T11:11:38.989Z,22.70
2018-04-24T11:14:07.283Z,22.60
2018-04-24T11:16:35.571Z,22.80
2018-04-24T11:19:03.778Z,22.70
2018-04-24T11:21:31.317Z,23.10
2018-04-24T11:23:58.852Z,23.30
2018-04-24T11:26:27.178Z,23.40
2018-04-24T11:28:54.768Z,23.30
2018-04-24T11:31:22.318Z,23.40
2018-04-24T11:33:50.679Z,23.30
2018-04-24T11:36:18.702Z,23.20
2018-04-24T11:38:46.522Z,23.40
2018-04-24T11:41:16.553Z,23.80
2018-04-24T11:43:44.676Z,23.80
2018-04-24T11:46:12.215Z,24.20
2018-04-24T11:48:39.903Z,24.40
2018-04-24T11:51:08.132Z,23.90
2018-04-24T11:53:36.484Z,23.80
2018-04-24T11:56:04.097Z,23.80
2018-04-24T11:58:31.656Z,23.80
2018-04-24T12:00:59.188Z,23.60
2018-04-24T12:03:28.047Z,23.80
2018-04-24T12:05:56.385Z,23.70
2018-04-24T12:08:23.894Z,23.80
2018-04-24T12:10:51.451Z,23.80
2018-04-24T12:13:18.978Z,23.80
2018-04-24T12:15:46.632Z,23.90
2018-04-24T12:18:24.636Z,23.90
2018-04-24T12:25:10.364Z,23.80
2018-04-24T12:27:37.913Z,23.70
2018-04-24T12:30:05.453Z,23.60
2018-04-24T12:32:33.008Z,23.60
2018-04-24T12:35:00.567Z,23.80
2018-04-24T12:37:28.107Z,23.70
2018-04-24T12:39:55.810Z,23.80
2018-04-24T12:42:23.372Z,23.70
2018-04-24T12:44:53.374Z,23.80
2018-04-24T12:47:21.226Z,24.00
2018-04-24T12:49:48.795Z,24.20
2018-04-24T12:52:16.499Z,24.10
2018-04-24T12:54:44.656Z,24.00
2018-04-24T12:57:12.179Z,23.90
2018-04-24T12:59:39.830Z,24.00
2018-04-24T13:02:07.483Z,24.10
2018-04-24T13:04:35.166Z,24.20
2018-04-24T13:07:02.658Z,24.20
2018-04-24T13:09:30.925Z,24.00
2018-04-24T13:11:58.524Z,24.00
2018-04-24T13:14:26.906Z,23.80
2018-04-24T13:16:55.231Z,23.80
2018-04-24T13:19:22.763Z,23.80
2018-04-24T13:21:51.148Z,24.20
2018-04-24T13:24:19.193Z,24.40
2018-04-24T13:26:47.532Z,24.70
2018-04-24T13:29:17.250Z,24.70
2018-04-24T13:31:45.421Z,24.50
2018-04-24T13:34:15.515Z,24.20
2018-04-24T13:36:43.037Z,24.20
2018-04-24T13:39:11.375Z,24.30
2018-04-24T13:41:40.715Z,24.30
2018-04-24T13:44:08.315Z,24.20
2018-04-24T13:46:36.192Z,24.10
2018-04-24T13:49:03.734Z,24.20
2018-04-24T13:51:31.251Z,24.20
2018-04-24T13:53:59.619Z,24.00
2018-04-24T13:56:27.140Z,24.00
2018-04-24T13:58:54.655Z,24.00
2018-04-24T14:01:23.167Z,24.00
2018-04-24T14:03:50.674Z,24.00
2018-04-24T14:06:18.265Z,23.90
2018-04-24T14:08:45.763Z,24.00
2018-04-24T14:11:15.434Z,24.00
2018-04-24T14:13:42.964Z,23.90
2018-04-24T14:16:10.883Z,24.00
2018-04-24T14:18:38.446Z,24.00
2018-04-24T14:21:06.728Z,24.10
2018-04-24T14:23:34.269Z,24.10
2018-04-24T14:26:01.786Z,24.10
2018-04-24T14:28:29.319Z,24.10
2018-04-24T14:30:56.869Z,24.00
2018-04-24T14:33:24.396Z,24.00
2018-04-24T14:35:51.927Z,23.90
2018-04-24T14:38:19.848Z,23.90
2018-04-24T14:40:47.739Z,24.00
2018-04-24T14:43:15.475Z,24.00
2018-04-24T14:45:43.020Z,24.30
2018-04-24T14:48:11.030Z,24.40
2018-04-24T14:50:38.571Z,24.30
2018-04-24T14:53:06.145Z,24.30
2018-04-24T14:55:33.675Z,24.20
2018-04-24T14:58:01.230Z,24.20
2018-04-24T15:00:29.398Z,24.40
2018-04-24T15:02:56.973Z,24.60
2018-04-24T15:05:24.516Z,24.50
2018-04-24T15:07:52.273Z,24.40
2018-04-24T15:10:19.807Z,24.30
2018-04-24T15:12:47.336Z,24.30
2018-04-24T15:15:17.901Z,24.30
2018-04-24T15:17:45.432Z,24.30
2018-04-24T15:20:25.021Z,24.40
2018-04-24T15:22:52.500Z,24.40
2018-04-24T15:25:20.015Z,24.50
2018-04-24T15:27:47.582Z,24.50
2018-04-24T15:30:15.535Z,24.50
2018-04-24T15:32:43.103Z,24.50
2018-04-24T15:35:10.667Z,24.50
2018-04-24T15:37:38.202Z,24.30
2018-04-24T15:40:06.507Z,24.40
2018-04-24T15:42:34.368Z,24.40
2018-04-24T15:45:01.891Z,24.40
2018-04-24T15:47:29.942Z,24.30
2018-04-24T15:49:58.287Z,24.20
2018-04-24T15:52:25.814Z,24.20
2018-04-24T15:54:54.178Z,24.40
2018-04-24T15:57:21.720Z,24.40
2018-04-24T15:59:49.527Z,24.40
2018-04-24T16:02:17.055Z,24.30
2018-04-24T16:04:45.728Z,24.30
2018-04-24T16:07:25.129Z,24.30
2018-04-24T16:12:26.321Z,24.30
2018-04-24T16:14:53.913Z,24.10
2018-04-24T16:17:21.451Z,24.00
2018-04-24T16:19:49.661Z,24.00
2018-04-24T16:22:17.234Z,23.90
2018-04-24T16:24:44.754Z,23.90
2018-04-24T16:27:12.408Z,23.70
2018-04-24T16:29:40.059Z,23.70
2018-04-24T16:32:07.546Z,23.50
2018-04-24T16:34:35.213Z,23.40
2018-04-24T16:37:02.764Z,23.40
2018-04-24T16:39:31.006Z,23.40
2018-04-24T16:41:59.201Z,23.50
2018-04-24T16:44:26.798Z,23.50
2018-04-24T16:46:54.338Z,23.40
2018-04-24T16:49:22.667Z,23.20
2018-04-24T16:51:51.239Z,23.20
2018-04-24T16:54:18.827Z,23.20
2018-04-24T16:56:46.366Z,23.10
2018-04-24T16:59:26.043Z,23.00
2018-04-24T17:04:41.106Z,22.90
2018-04-24T17:07:08.654Z,22.70
2018-04-24T17:09:36.169Z,22.70
2018-04-24T17:12:04.158Z,22.70
2018-04-24T17:14:31.681Z,22.70
2018-04-24T17:16:59.968Z,22.60
2018-04-24T17:19:27.678Z,22.60
2018-04-24T17:21:55.195Z,22.50
2018-04-24T17:24:22.742Z,22.50
2018-04-24T17:26:50.932Z,22.50
2018-04-24T17:29:18.491Z,22.50
2018-04-24T17:31:46.011Z,22.30
2018-04-24T17:34:15.499Z,22.10
2018-04-24T17:36:43.026Z,22.10
2018-04-24T17:39:10.548Z,22.10
2018-04-24T17:41:38.115Z,22.10
2018-04-24T17:44:05.644Z,22.00
2018-04-24T17:46:33.158Z,21.80
2018-04-24T17:49:00.725Z,21.60
2018-04-24T17:51:28.244Z,21.60
2018-04-24T17:53:56.989Z,21.40
2018-04-24T17:56:24.575Z,21.40
2018-04-24T17:58:52.145Z,21.30
2018-04-24T18:01:20.495Z,21.00
2018-04-24T18:03:48.047Z,21.00
2018-04-24T18:06:17.213Z,20.90
2018-04-24T18:08:44.755Z,20.90
2018-04-24T18:11:12.408Z,20.80
2018-04-24T18:13:40.001Z,20.70
2018-04-24T18:16:07.525Z,20.60
2018-04-24T18:18:35.071Z,20.60
2018-04-24T18:21:02.614Z,20.60
2018-04-24T18:23:30.206Z,20.50
2018-04-24T18:25:58.634Z,20.40
2018-04-24T18:28:26.356Z,20.40
2018-04-24T18:30:53.881Z,20.30
2018-04-24T18:33:21.470Z,20.30
2018-04-24T18:35:49.000Z,20.30
2018-04-24T18:38:16.537Z,20.20
2018-04-24T18:40:44.088Z,20.10
2018-04-24T18:43:11.626Z,20.10
2018-04-24T18:45:39.131Z,20.00
2018-04-24T18:48:06.700Z,19.90
2018-04-24T18:50:35.070Z,19.80
2018-04-24T18:53:02.621Z,19.70
2018-04-24T18:55:30.833Z,19.70
2018-04-24T18:57:58.363Z,19.60
2018-04-24T19:00:26.719Z,19.50
2018-04-24T19:02:54.322Z,19.50
2018-04-24T19:05:21.870Z,19.50
2018-04-24T19:07:49.528Z,19.40
2018-04-24T19:10:17.097Z,19.30
2018-04-24T19:12:44.638Z,19.20
2018-04-24T19:15:12.182Z,19.10
2018-04-24T19:17:41.250Z,19.00
2018-04-24T19:20:08.886Z,19.10
2018-04-24T19:22:37.166Z,19.00
2018-04-24T19:25:10.499Z,19.00
2018-04-24T19:27:38.744Z,18.80
2018-04-24T19:30:07.041Z,18.70
2018-04-24T19:32:34.990Z,18.70
2018-04-24T19:35:02.566Z,18.40
2018-04-24T19:37:30.230Z,18.40
2018-04-24T19:40:03.685Z,18.30
2018-04-24T19:42:31.320Z,18.10
2018-04-24T19:44:58.867Z,18.10
2018-04-24T19:47:26.430Z,18.00
2018-04-24T19:49:59.521Z,18.00
2018-04-24T19:52:27.857Z,17.90
2018-04-24T19:55:00.967Z,17.90
2018-04-24T19:57:29.268Z,17.80
2018-04-24T19:59:56.775Z,17.80
2018-04-24T20:02:24.333Z,17.70
2018-04-24T20:04:51.902Z,17.60
2018-04-24T20:07:19.424Z,17.60
2018-04-24T20:09:46.963Z,17.60
2018-04-24T20:12:26.262Z,17.40
2018-04-24T20:17:28.615Z,17.30
2018-04-24T20:19:56.313Z,17.20
2018-04-24T20:22:23.838Z,17.10
2018-04-24T20:24:51.390Z,17.00
2018-04-24T20:27:18.914Z,17.00
2018-04-24T20:29:46.539Z,16.90
2018-04-24T20:32:26.792Z,16.80
2018-04-24T20:37:39.538Z,16.80
2018-04-24T20:40:07.097Z,16.60
2018-04-24T20:42:34.639Z,16.60
2018-04-24T20:45:02.203Z,16.50
2018-04-24T20:47:29.752Z,16.50
2018-04-24T20:49:57.330Z,16.50
2018-04-24T20:52:24.892Z,16.50
2018-04-24T20:54:52.422Z,16.40
2018-04-24T20:57:19.966Z,16.40
2018-04-24T20:59:48.079Z,16.40
2018-04-24T21:02:16.414Z,16.30
2018-04-24T21:04:43.953Z,16.30
2018-04-24T21:07:11.499Z,16.20
2018-04-24T21:09:39.086Z,16.10
2018-04-24T21:12:07.249Z,16.00
2018-04-24T21:14:35.572Z,15.90
2018-04-24T21:17:03.096Z,15.80
2018-04-24T21:19:30.706Z,15.80
2018-04-24T21:21:58.244Z,15.80
2018-04-24T21:24:25.853Z,15.70
2018-04-24T21:26:53.346Z,15.70
2018-04-24T21:29:20.923Z,15.70
2018-04-24T21:31:48.452Z,15.70
2018-04-24T21:34:16.486Z,15.60
2018-04-24T21:36:44.046Z,15.50
2018-04-24T21:39:13.996Z,15.40
2018-04-24T21:41:41.528Z,15.40
2018-04-24T21:44:09.891Z,15.40
2018-04-24T21:46:37.449Z,15.40
2018-04-24T21:49:05.005Z,15.40
2018-04-24T21:51:32.557Z,15.40
2018-04-24T21:54:00.079Z,15.40
2018-04-24T21:56:27.602Z,15.40
2018-04-24T21:58:55.184Z,15.30
2018-04-24T22:01:23.199Z,15.40
2018-04-24T22:03:50.722Z,15.30
2018-04-24T22:06:18.505Z,15.20
2018-04-24T22:08:46.022Z,15.10
2018-04-24T22:11:24.503Z,15.00
2018-04-24T22:13:52.035Z,15.00
2018-04-24T22:16:20.334Z,14.90
2018-04-24T22:18:47.867Z,14.80
2018-04-24T22:21:16.412Z,14.80
2018-04-24T22:23:44.698Z,14.70
2018-04-24T22:26:12.920Z,14.70
2018-04-24T22:28:40.442Z,14.70
2018-04-24T22:31:07.970Z,14.60
2018-04-24T22:33:35.528Z,14.60
2018-04-24T22:36:03.834Z,14.60
2018-04-24T22:38:31.355Z,14.50
2018-04-24T22:40:58.947Z,14.50
2018-04-24T22:43:26.474Z,14.40
2018-04-24T22:45:54.010Z,14.30
2018-04-24T22:48:21.614Z,14.30
2018-04-24T22:50:49.148Z,14.30
2018-04-24T22:53:16.671Z,14.30
2018-04-24T22:55:44.218Z,14.20
2018-04-24T22:58:11.751Z,14.20
2018-04-24T23:00:39.285Z,14.20
2018-04-24T23:03:07.634Z,14.20
2018-04-24T23:05:35.160Z,14.10
2018-04-24T23:08:02.689Z,14.10
2018-04-24T23:10:42.649Z,14.00
2018-04-24T23:13:21.891Z,14.00
2018-04-24T23:16:01.326Z,14.00
2018-04-24T23:18:40.665Z,14.00
2018-04-24T23:21:07.758Z,13.90
2018-04-24T23:23:35.296Z,13.80
2018-04-24T23:26:02.888Z,13.80
2018-04-24T23:28:30.954Z,13.80
2018-04-24T23:30:58.491Z,13.80
2018-04-24T23:33:26.809Z,13.70
2018-04-24T23:35:54.366Z,13.60
2018-04-24T23:38:21.880Z,13.60
2018-04-24T23:40:49.439Z,13.40
2018-04-24T23:43:16.997Z,13.40
2018-04-24T23:45:44.511Z,13.40
2018-04-24T23:48:12.068Z,13.40
2018-04-24T23:50:40.911Z,13.40
2018-04-24T23:53:08.429Z,13.40
2018-04-24T23:55:36.710Z,13.30
2018-04-24T23:58:05.016Z,13.30
